Overview Statistics Trail Chart Weather Telemetry Raw packets
 

This is the latest recevied weather packets stored in our database for station/object TA2LKM-11. If no packets are shown the sender has not sent any weather packets the latest 10 day(s).

<< 46 47 48 49 50 51 >>
Time Temp. Humidity Pressure Rain* Wind** Luminosity Snow
1787877964 25.56° C 49% 1015.5 hPa - - - -
1787877064 25.56° C 49% 1015.7 hPa - - - -
1787876163 25° C 50% 1015.7 hPa - - - -
1787875262 24.44° C 53% 1015.7 hPa - - - -
1787874362 24.44° C 54% 1015.8 hPa - - - -
1787873461 25.56° C 52% 1015.9 hPa - - - -
1787872560 26.67° C 51% 1015.8 hPa - - - -
1787871659 26.67° C 50% 1015.9 hPa - - - -
1787870759 26.67° C 50% 1015.9 hPa - - - -
1787869858 26.67° C 48% 1015.9 hPa - - - -
1787868957 27.22° C 47% 1016 hPa - - - -
1787868056 26.11° C 49% 1015.9 hPa - - - -
1787867172 26.11° C 50% 1015.9 hPa - - - -
1787866271 27.78° C 45% 1015.9 hPa - - - -
1787865371 27.78° C 46% 1015.7 hPa - - - -
1787864470 27.78° C 46% 1015.8 hPa - - - -
1787863570 28.33° C 45% 1015.7 hPa - - - -
1787862668 28.33° C 44% 1015.6 hPa - - - -
1787861768 28.33° C 44% 1015.7 hPa - - - -
1787860867 28.33° C 44% 1015.5 hPa - - - -
1787859966 28.89° C 44% 1015.2 hPa - - - -
1787859066 28.89° C 44% 1015.2 hPa - - - -
1787858165 28.89° C 44% 1015.2 hPa - - - -
1787857264 29.44° C 43% 1015.2 hPa - - - -
1787856363 29.44° C 43% 1015.1 hPa - - - -

* Rain since midnight (hover to see other rain measurements)
** Current wind speed in m/s (hover to see current wind gust speed)